<?xml version="1.0" encoding="UTF-8" standalone="no" ?>
<gpx xmlns="http://www.topografix.com/GPX/1/1" xmlns:xsi="http://www.w3.org/2001/XMLSchema-instance" xsi:schemaLocation="http://www.topografix.com/GPX/1/1 http://www.topografix.com/GPX/1/1/gpx.xsd" version="1.1" creator="VisuGPX - https://www.visugpx.com">
  <metadata>
    <name>Sentiers_Brague</name>
    <desc><![CDATA[itineraire empruntant les 5 sentiers Frappés dans la Brague]]></desc>
  </metadata>
  <trk>
    <name><![CDATA[ACTIVE LOG]]></name>
    <trkseg>
      <trkpt lat="43.62684" lon="7.04158">
        <ele>164.0421143</ele>
        <time>2010-04-15T10:07:52Z</time>
      </trkpt>
      <trkpt lat="43.627" lon="7.0414">
        <ele>164.5227051</ele>
        <time>2010-04-15T10:08:24Z</time>
      </trkpt>
      <trkpt lat="43.6269" lon="7.04106">
        <ele>165.4841309</ele>
        <time>2010-04-15T10:08:31Z</time>
      </trkpt>
      <trkpt lat="43.62678" lon="7.0407">
        <ele>166.9260254</ele>
        <time>2010-04-15T10:08:37Z</time>
      </trkpt>
      <trkpt lat="43.62667" lon="7.04033">
        <ele>166.9260254</ele>
        <time>2010-04-15T10:08:44Z</time>
      </trkpt>
      <trkpt lat="43.62659" lon="7.03994">
        <ele>167.8873291</ele>
        <time>2010-04-15T10:08:51Z</time>
      </trkpt>
      <trkpt lat="43.62648" lon="7.03959">
        <ele>170.2906494</ele>
        <time>2010-04-15T10:08:58Z</time>
      </trkpt>
      <trkpt lat="43.62628" lon="7.03935">
        <ele>171.2520752</ele>
        <time>2010-04-15T10:09:05Z</time>
      </trkpt>
      <trkpt lat="43.62605" lon="7.03912">
        <ele>173.1746826</ele>
        <time>2010-04-15T10:09:12Z</time>
      </trkpt>
      <trkpt lat="43.62582" lon="7.03888">
        <ele>174.6165771</ele>
        <time>2010-04-15T10:09:19Z</time>
      </trkpt>
      <trkpt lat="43.62558" lon="7.03862">
        <ele>177.0200195</ele>
        <time>2010-04-15T10:09:27Z</time>
      </trkpt>
      <trkpt lat="43.62537" lon="7.03832">
        <ele>179.4232178</ele>
        <time>2010-04-15T10:09:35Z</time>
      </trkpt>
      <trkpt lat="43.62516" lon="7.03803">
        <ele>181.3458252</ele>
        <time>2010-04-15T10:09:43Z</time>
      </trkpt>
      <trkpt lat="43.6249" lon="7.03779">
        <ele>183.2684326</ele>
        <time>2010-04-15T10:09:52Z</time>
      </trkpt>
      <trkpt lat="43.62475" lon="7.03748">
        <ele>183.7490234</ele>
        <time>2010-04-15T10:10:00Z</time>
      </trkpt>
      <trkpt lat="43.62488" lon="7.03719">
        <ele>184.7105713</ele>
        <time>2010-04-15T10:10:09Z</time>
      </trkpt>
      <trkpt lat="43.62515" lon="7.03725">
        <ele>185.6717529</ele>
        <time>2010-04-15T10:10:18Z</time>
      </trkpt>
      <trkpt lat="43.62543" lon="7.03723">
        <ele>186.6331787</ele>
        <time>2010-04-15T10:10:27Z</time>
      </trkpt>
      <trkpt lat="43.62571" lon="7.03722">
        <ele>187.5943604</ele>
        <time>2010-04-15T10:10:35Z</time>
      </trkpt>
      <trkpt lat="43.62599" lon="7.03739">
        <ele>189.5169678</ele>
        <time>2010-04-15T10:10:44Z</time>
      </trkpt>
      <trkpt lat="43.62627" lon="7.03753">
        <ele>191.4395752</ele>
        <time>2010-04-15T10:10:53Z</time>
      </trkpt>
      <trkpt lat="43.62658" lon="7.03749">
        <ele>193.3623047</ele>
        <time>2010-04-15T10:11:01Z</time>
      </trkpt>
      <trkpt lat="43.62684" lon="7.03735">
        <ele>196.2463379</ele>
        <time>2010-04-15T10:11:09Z</time>
      </trkpt>
      <trkpt lat="43.62713" lon="7.03718">
        <ele>198.6495361</ele>
        <time>2010-04-15T10:11:18Z</time>
      </trkpt>
      <trkpt lat="43.62736" lon="7.03689">
        <ele>200.5722656</ele>
        <time>2010-04-15T10:11:26Z</time>
      </trkpt>
      <trkpt lat="43.62755" lon="7.03659">
        <ele>202.494873</ele>
        <time>2010-04-15T10:11:33Z</time>
      </trkpt>
      <trkpt lat="43.62776" lon="7.03634">
        <ele>202.9754639</ele>
        <time>2010-04-15T10:11:42Z</time>
      </trkpt>
      <trkpt lat="43.62799" lon="7.03612">
        <ele>202.494873</ele>
        <time>2010-04-15T10:11:50Z</time>
      </trkpt>
      <trkpt lat="43.62824" lon="7.03591">
        <ele>203.4561768</ele>
        <time>2010-04-15T10:11:57Z</time>
      </trkpt>
      <trkpt lat="43.62839" lon="7.03558">
        <ele>204.4174805</ele>
        <time>2010-04-15T10:12:06Z</time>
      </trkpt>
      <trkpt lat="43.6285" lon="7.03525">
        <ele>203.4561768</ele>
        <time>2010-04-15T10:12:14Z</time>
      </trkpt>
      <trkpt lat="43.62868" lon="7.0349">
        <ele>203.4561768</ele>
        <time>2010-04-15T10:12:22Z</time>
      </trkpt>
      <trkpt lat="43.62886" lon="7.03456">
        <ele>203.4561768</ele>
        <time>2010-04-15T10:12:29Z</time>
      </trkpt>
      <trkpt lat="43.62904" lon="7.03426">
        <ele>202.0142822</ele>
        <time>2010-04-15T10:12:34Z</time>
      </trkpt>
      <trkpt lat="43.62905" lon="7.0339">
        <ele>201.0528564</ele>
        <time>2010-04-15T10:12:43Z</time>
      </trkpt>
      <trkpt lat="43.62901" lon="7.03352">
        <ele>200.0916748</ele>
        <time>2010-04-15T10:12:49Z</time>
      </trkpt>
      <trkpt lat="43.629" lon="7.03313">
        <ele>197.6882324</ele>
        <time>2010-04-15T10:12:54Z</time>
      </trkpt>
      <trkpt lat="43.62886" lon="7.0328">
        <ele>197.2075195</ele>
        <time>2010-04-15T10:13:02Z</time>
      </trkpt>
      <trkpt lat="43.62866" lon="7.03248">
        <ele>195.2849121</ele>
        <time>2010-04-15T10:13:14Z</time>
      </trkpt>
      <trkpt lat="43.62855" lon="7.03218">
        <ele>196.7269287</ele>
        <time>2010-04-15T10:13:24Z</time>
      </trkpt>
      <trkpt lat="43.62867" lon="7.03183">
        <ele>194.8043213</ele>
        <time>2010-04-15T10:13:32Z</time>
      </trkpt>
      <trkpt lat="43.62884" lon="7.03153">
        <ele>190.4783936</ele>
        <time>2010-04-15T10:13:39Z</time>
      </trkpt>
      <trkpt lat="43.62891" lon="7.0311">
        <ele>190.4783936</ele>
        <time>2010-04-15T10:13:46Z</time>
      </trkpt>
      <trkpt lat="43.62885" lon="7.0307">
        <ele>189.036377</ele>
        <time>2010-04-15T10:13:51Z</time>
      </trkpt>
      <trkpt lat="43.62887" lon="7.03031">
        <ele>186.1524658</ele>
        <time>2010-04-15T10:13:57Z</time>
      </trkpt>
      <trkpt lat="43.62895" lon="7.02997">
        <ele>182.3071289</ele>
        <time>2010-04-15T10:14:04Z</time>
      </trkpt>
      <trkpt lat="43.62901" lon="7.02956">
        <ele>181.3458252</ele>
        <time>2010-04-15T10:14:14Z</time>
      </trkpt>
      <trkpt lat="43.62903" lon="7.02916">
        <ele>178.942627</ele>
        <time>2010-04-15T10:14:20Z</time>
      </trkpt>
      <trkpt lat="43.62896" lon="7.02875">
        <ele>175.5778809</ele>
        <time>2010-04-15T10:14:26Z</time>
      </trkpt>
      <trkpt lat="43.62894" lon="7.02835">
        <ele>174.1358643</ele>
        <time>2010-04-15T10:14:33Z</time>
      </trkpt>
      <trkpt lat="43.62891" lon="7.02799">
        <ele>170.7713623</ele>
        <time>2010-04-15T10:14:41Z</time>
      </trkpt>
      <trkpt lat="43.62891" lon="7.0277">
        <ele>163.0808105</ele>
        <time>2010-04-15T10:14:53Z</time>
      </trkpt>
      <trkpt lat="43.62865" lon="7.02767">
        <ele>166.4453125</ele>
        <time>2010-04-15T10:15:08Z</time>
      </trkpt>
      <trkpt lat="43.6285" lon="7.02742">
        <ele>168.368042</ele>
        <time>2010-04-15T10:16:31Z</time>
      </trkpt>
      <trkpt lat="43.62828" lon="7.02723">
        <ele>172.2132568</ele>
        <time>2010-04-15T10:16:43Z</time>
      </trkpt>
      <trkpt lat="43.62802" lon="7.0271">
        <ele>175.09729</ele>
        <time>2010-04-15T10:16:55Z</time>
      </trkpt>
      <trkpt lat="43.62779" lon="7.02684">
        <ele>177.9812012</ele>
        <time>2010-04-15T10:17:07Z</time>
      </trkpt>
      <trkpt lat="43.62766" lon="7.0265">
        <ele>180.3845215</ele>
        <time>2010-04-15T10:17:18Z</time>
      </trkpt>
      <trkpt lat="43.62747" lon="7.02622">
        <ele>182.7878418</ele>
        <time>2010-04-15T10:17:29Z</time>
      </trkpt>
      <trkpt lat="43.62721" lon="7.02608">
        <ele>185.6717529</ele>
        <time>2010-04-15T10:17:38Z</time>
      </trkpt>
      <trkpt lat="43.62693" lon="7.02604">
        <ele>188.0750732</ele>
        <time>2010-04-15T10:17:46Z</time>
      </trkpt>
      <trkpt lat="43.62663" lon="7.02613">
        <ele>190.9589844</ele>
        <time>2010-04-15T10:17:55Z</time>
      </trkpt>
      <trkpt lat="43.62636" lon="7.02628">
        <ele>192.8817139</ele>
        <time>2010-04-15T10:18:04Z</time>
      </trkpt>
      <trkpt lat="43.6261" lon="7.02644">
        <ele>195.2849121</ele>
        <time>2010-04-15T10:18:13Z</time>
      </trkpt>
      <trkpt lat="43.6258" lon="7.02651">
        <ele>198.1689453</ele>
        <time>2010-04-15T10:18:23Z</time>
      </trkpt>
      <trkpt lat="43.62554" lon="7.02649">
        <ele>201.0528564</ele>
        <time>2010-04-15T10:18:32Z</time>
      </trkpt>
      <trkpt lat="43.62524" lon="7.02648">
        <ele>204.4174805</ele>
        <time>2010-04-15T10:18:42Z</time>
      </trkpt>
      <trkpt lat="43.62497" lon="7.02648">
        <ele>206.8206787</ele>
        <time>2010-04-15T10:18:51Z</time>
      </trkpt>
      <trkpt lat="43.62467" lon="7.02642">
        <ele>208.7434082</ele>
        <time>2010-04-15T10:19:02Z</time>
      </trkpt>
      <trkpt lat="43.62436" lon="7.0263">
        <ele>210.1854248</ele>
        <time>2010-04-15T10:19:12Z</time>
      </trkpt>
      <trkpt lat="43.62414" lon="7.02604">
        <ele>210.1854248</ele>
        <time>2010-04-15T10:19:21Z</time>
      </trkpt>
      <trkpt lat="43.62401" lon="7.02573">
        <ele>211.6274414</ele>
        <time>2010-04-15T10:19:30Z</time>
      </trkpt>
      <trkpt lat="43.62385" lon="7.02539">
        <ele>212.1080322</ele>
        <time>2010-04-15T10:19:39Z</time>
      </trkpt>
      <trkpt lat="43.62371" lon="7.02506">
        <ele>213.0693359</ele>
        <time>2010-04-15T10:19:48Z</time>
      </trkpt>
      <trkpt lat="43.62349" lon="7.02496">
        <ele>214.9919434</ele>
        <time>2010-04-15T10:19:58Z</time>
      </trkpt>
      <trkpt lat="43.62341" lon="7.02502">
        <ele>214.9919434</ele>
        <time>2010-04-15T10:20:35Z</time>
      </trkpt>
      <trkpt lat="43.62344" lon="7.02543">
        <ele>219.3179932</ele>
        <time>2010-04-15T10:20:46Z</time>
      </trkpt>
      <trkpt lat="43.62341" lon="7.02584">
        <ele>222.2017822</ele>
        <time>2010-04-15T10:20:57Z</time>
      </trkpt>
      <trkpt lat="43.62346" lon="7.02626">
        <ele>224.6052246</ele>
        <time>2010-04-15T10:21:07Z</time>
      </trkpt>
      <trkpt lat="43.62354" lon="7.02662">
        <ele>227.0085449</ele>
        <time>2010-04-15T10:21:17Z</time>
      </trkpt>
      <trkpt lat="43.62371" lon="7.02689">
        <ele>228.4504395</ele>
        <time>2010-04-15T10:21:29Z</time>
      </trkpt>
      <trkpt lat="43.62373" lon="7.02697">
        <ele>228.9311523</ele>
        <time>2010-04-15T10:21:52Z</time>
      </trkpt>
      <trkpt lat="43.62407" lon="7.02687">
        <ele>224.6052246</ele>
        <time>2010-04-15T10:22:07Z</time>
      </trkpt>
      <trkpt lat="43.62436" lon="7.02706">
        <ele>222.6824951</ele>
        <time>2010-04-15T10:22:18Z</time>
      </trkpt>
      <trkpt lat="43.62471" lon="7.02714">
        <ele>222.2017822</ele>
        <time>2010-04-15T10:22:30Z</time>
      </trkpt>
      <trkpt lat="43.62508" lon="7.02717">
        <ele>221.2406006</ele>
        <time>2010-04-15T10:22:39Z</time>
      </trkpt>
      <trkpt lat="43.62537" lon="7.02732">
        <ele>219.798584</ele>
        <time>2010-04-15T10:22:52Z</time>
      </trkpt>
      <trkpt lat="43.62579" lon="7.02745">
        <ele>222.2017822</ele>
        <time>2010-04-15T10:23:07Z</time>
      </trkpt>
      <trkpt lat="43.62616" lon="7.0274">
        <ele>223.163208</ele>
        <time>2010-04-15T10:23:19Z</time>
      </trkpt>
      <trkpt lat="43.62655" lon="7.02729">
        <ele>222.6824951</ele>
        <time>2010-04-15T10:23:32Z</time>
      </trkpt>
      <trkpt lat="43.62695" lon="7.02743">
        <ele>222.6824951</ele>
        <time>2010-04-15T10:23:46Z</time>
      </trkpt>
      <trkpt lat="43.62737" lon="7.02771">
        <ele>220.2791748</ele>
        <time>2010-04-15T10:24:10Z</time>
      </trkpt>
      <trkpt lat="43.62765" lon="7.02814">
        <ele>212.1080322</ele>
        <time>2010-04-15T10:24:26Z</time>
      </trkpt>
      <trkpt lat="43.62786" lon="7.02851">
        <ele>202.494873</ele>
        <time>2010-04-15T10:24:48Z</time>
      </trkpt>
      <trkpt lat="43.62813" lon="7.02862">
        <ele>196.7269287</ele>
        <time>2010-04-15T10:25:04Z</time>
      </trkpt>
      <trkpt lat="43.62838" lon="7.02867">
        <ele>189.5169678</ele>
        <time>2010-04-15T10:25:19Z</time>
      </trkpt>
      <trkpt lat="43.62868" lon="7.02852">
        <ele>184.2298584</ele>
        <time>2010-04-15T10:25:30Z</time>
      </trkpt>
      <trkpt lat="43.62868" lon="7.02813">
        <ele>180.8652344</ele>
        <time>2010-04-15T10:28:46Z</time>
      </trkpt>
      <trkpt lat="43.6287" lon="7.02776">
        <ele>171.732666</ele>
        <time>2010-04-15T10:28:58Z</time>
      </trkpt>
      <trkpt lat="43.62893" lon="7.02783">
        <ele>167.4067383</ele>
        <time>2010-04-15T10:29:08Z</time>
      </trkpt>
      <trkpt lat="43.62915" lon="7.02791">
        <ele>165.9647217</ele>
        <time>2010-04-15T10:29:14Z</time>
      </trkpt>
      <trkpt lat="43.62934" lon="7.02773">
        <ele>167.4067383</ele>
        <time>2010-04-15T10:29:25Z</time>
      </trkpt>
      <trkpt lat="43.62963" lon="7.02752">
        <ele>170.7713623</ele>
        <time>2010-04-15T10:29:35Z</time>
      </trkpt>
      <trkpt lat="43.62983" lon="7.02718">
        <ele>173.6552734</ele>
        <time>2010-04-15T10:29:46Z</time>
      </trkpt>
      <trkpt lat="43.63001" lon="7.02688">
        <ele>177.0200195</ele>
        <time>2010-04-15T10:29:56Z</time>
      </trkpt>
      <trkpt lat="43.63017" lon="7.02654">
        <ele>178.942627</ele>
        <time>2010-04-15T10:30:06Z</time>
      </trkpt>
      <trkpt lat="43.63028" lon="7.02621">
        <ele>180.3845215</ele>
        <time>2010-04-15T10:30:16Z</time>
      </trkpt>
      <trkpt lat="43.63021" lon="7.02601">
        <ele>182.7878418</ele>
        <time>2010-04-15T10:30:34Z</time>
      </trkpt>
      <trkpt lat="43.63028" lon="7.02633">
        <ele>179.9038086</ele>
        <time>2010-04-15T10:30:43Z</time>
      </trkpt>
      <trkpt lat="43.63031" lon="7.02603">
        <ele>181.3458252</ele>
        <time>2010-04-15T10:30:57Z</time>
      </trkpt>
      <trkpt lat="43.63005" lon="7.02594">
        <ele>185.6717529</ele>
        <time>2010-04-15T10:31:14Z</time>
      </trkpt>
      <trkpt lat="43.62974" lon="7.0259">
        <ele>188.0750732</ele>
        <time>2010-04-15T10:31:29Z</time>
      </trkpt>
      <trkpt lat="43.62947" lon="7.0257">
        <ele>191.9202881</ele>
        <time>2010-04-15T10:31:40Z</time>
      </trkpt>
      <trkpt lat="43.62924" lon="7.02542">
        <ele>195.2849121</ele>
        <time>2010-04-15T10:31:50Z</time>
      </trkpt>
      <trkpt lat="43.629" lon="7.02519">
        <ele>198.1689453</ele>
        <time>2010-04-15T10:31:59Z</time>
      </trkpt>
      <trkpt lat="43.62881" lon="7.0249">
        <ele>201.0528564</ele>
        <time>2010-04-15T10:32:09Z</time>
      </trkpt>
      <trkpt lat="43.62867" lon="7.02453">
        <ele>203.4561768</ele>
        <time>2010-04-15T10:32:19Z</time>
      </trkpt>
      <trkpt lat="43.62862" lon="7.02416">
        <ele>207.3013916</ele>
        <time>2010-04-15T10:32:30Z</time>
      </trkpt>
      <trkpt lat="43.62856" lon="7.02371">
        <ele>211.6274414</ele>
        <time>2010-04-15T10:32:41Z</time>
      </trkpt>
      <trkpt lat="43.62868" lon="7.02324">
        <ele>215.4726563</ele>
        <time>2010-04-15T10:32:54Z</time>
      </trkpt>
      <trkpt lat="43.62888" lon="7.02297">
        <ele>218.8372803</ele>
        <time>2010-04-15T10:33:09Z</time>
      </trkpt>
      <trkpt lat="43.62912" lon="7.0227">
        <ele>223.163208</ele>
        <time>2010-04-15T10:33:26Z</time>
      </trkpt>
      <trkpt lat="43.62943" lon="7.02254">
        <ele>226.527832</ele>
        <time>2010-04-15T10:33:48Z</time>
      </trkpt>
      <trkpt lat="43.62987" lon="7.02226">
        <ele>227.4891357</ele>
        <time>2010-04-15T10:35:29Z</time>
      </trkpt>
      <trkpt lat="43.62994" lon="7.02185">
        <ele>225.0859375</ele>
        <time>2010-04-15T10:35:35Z</time>
      </trkpt>
      <trkpt lat="43.63004" lon="7.02166">
        <ele>224.6052246</ele>
        <time>2010-04-15T10:35:54Z</time>
      </trkpt>
      <trkpt lat="43.62994" lon="7.02194">
        <ele>224.6052246</ele>
        <time>2010-04-15T10:36:07Z</time>
      </trkpt>
      <trkpt lat="43.63003" lon="7.02228">
        <ele>228.4504395</ele>
        <time>2010-04-15T10:37:06Z</time>
      </trkpt>
      <trkpt lat="43.62986" lon="7.02258">
        <ele>231.3343506</ele>
        <time>2010-04-15T10:37:23Z</time>
      </trkpt>
      <trkpt lat="43.62965" lon="7.02278">
        <ele>234.6990967</ele>
        <time>2010-04-15T10:37:42Z</time>
      </trkpt>
      <trkpt lat="43.62926" lon="7.02308">
        <ele>232.2957764</ele>
        <time>2010-04-15T10:37:56Z</time>
      </trkpt>
      <trkpt lat="43.62907" lon="7.02364">
        <ele>228.4504395</ele>
        <time>2010-04-15T10:38:07Z</time>
      </trkpt>
      <trkpt lat="43.62894" lon="7.02419">
        <ele>219.798584</ele>
        <time>2010-04-15T10:38:16Z</time>
      </trkpt>
      <trkpt lat="43.62899" lon="7.02472">
        <ele>209.2241211</ele>
        <time>2010-04-15T10:38:28Z</time>
      </trkpt>
      <trkpt lat="43.62925" lon="7.02529">
        <ele>201.5335693</ele>
        <time>2010-04-15T10:38:40Z</time>
      </trkpt>
      <trkpt lat="43.6293" lon="7.02569">
        <ele>196.2463379</ele>
        <time>2010-04-15T10:39:40Z</time>
      </trkpt>
      <trkpt lat="43.62929" lon="7.02606">
        <ele>191.4395752</ele>
        <time>2010-04-15T10:39:46Z</time>
      </trkpt>
      <trkpt lat="43.62953" lon="7.02627">
        <ele>187.5943604</ele>
        <time>2010-04-15T10:39:56Z</time>
      </trkpt>
      <trkpt lat="43.62988" lon="7.02632">
        <ele>186.1524658</ele>
        <time>2010-04-15T10:40:05Z</time>
      </trkpt>
      <trkpt lat="43.63032" lon="7.02622">
        <ele>184.2298584</ele>
        <time>2010-04-15T10:40:15Z</time>
      </trkpt>
      <trkpt lat="43.63049" lon="7.02592">
        <ele>185.1911621</ele>
        <time>2010-04-15T10:40:30Z</time>
      </trkpt>
      <trkpt lat="43.63073" lon="7.02564">
        <ele>184.2298584</ele>
        <time>2010-04-15T10:40:38Z</time>
      </trkpt>
      <trkpt lat="43.63095" lon="7.02542">
        <ele>182.3071289</ele>
        <time>2010-04-15T10:40:46Z</time>
      </trkpt>
      <trkpt lat="43.63125" lon="7.02555">
        <ele>184.2298584</ele>
        <time>2010-04-15T10:40:58Z</time>
      </trkpt>
      <trkpt lat="43.6315" lon="7.02566">
        <ele>186.1524658</ele>
        <time>2010-04-15T10:41:10Z</time>
      </trkpt>
      <trkpt lat="43.63157" lon="7.02599">
        <ele>186.6331787</ele>
        <time>2010-04-15T10:41:19Z</time>
      </trkpt>
      <trkpt lat="43.63143" lon="7.02631">
        <ele>187.5943604</ele>
        <time>2010-04-15T10:41:28Z</time>
      </trkpt>
      <trkpt lat="43.63137" lon="7.02662">
        <ele>189.5169678</ele>
        <time>2010-04-15T10:41:37Z</time>
      </trkpt>
      <trkpt lat="43.63127" lon="7.02698">
        <ele>191.4395752</ele>
        <time>2010-04-15T10:41:47Z</time>
      </trkpt>
      <trkpt lat="43.63117" lon="7.02732">
        <ele>192.8817139</ele>
        <time>2010-04-15T10:41:57Z</time>
      </trkpt>
      <trkpt lat="43.63104" lon="7.0277">
        <ele>194.8043213</ele>
        <time>2010-04-15T10:42:08Z</time>
      </trkpt>
      <trkpt lat="43.63091" lon="7.02808">
        <ele>196.7269287</ele>
        <time>2010-04-15T10:42:19Z</time>
      </trkpt>
      <trkpt lat="43.63084" lon="7.02848">
        <ele>199.130127</ele>
        <time>2010-04-15T10:42:29Z</time>
      </trkpt>
      <trkpt lat="43.63083" lon="7.02888">
        <ele>200.0916748</ele>
        <time>2010-04-15T10:42:39Z</time>
      </trkpt>
      <trkpt lat="43.63084" lon="7.02926">
        <ele>200.5722656</ele>
        <time>2010-04-15T10:42:49Z</time>
      </trkpt>
      <trkpt lat="43.63095" lon="7.02964">
        <ele>202.9754639</ele>
        <time>2010-04-15T10:43:00Z</time>
      </trkpt>
      <trkpt lat="43.63099" lon="7.03003">
        <ele>204.8980713</ele>
        <time>2010-04-15T10:43:11Z</time>
      </trkpt>
      <trkpt lat="43.63104" lon="7.0304">
        <ele>205.8594971</ele>
        <time>2010-04-15T10:43:21Z</time>
      </trkpt>
      <trkpt lat="43.63114" lon="7.03079">
        <ele>207.3013916</ele>
        <time>2010-04-15T10:43:32Z</time>
      </trkpt>
      <trkpt lat="43.63118" lon="7.03122">
        <ele>206.8206787</ele>
        <time>2010-04-15T10:43:41Z</time>
      </trkpt>
      <trkpt lat="43.63128" lon="7.03163">
        <ele>206.3400879</ele>
        <time>2010-04-15T10:43:49Z</time>
      </trkpt>
      <trkpt lat="43.63144" lon="7.03198">
        <ele>206.3400879</ele>
        <time>2010-04-15T10:43:57Z</time>
      </trkpt>
      <trkpt lat="43.63156" lon="7.03234">
        <ele>206.3400879</ele>
        <time>2010-04-15T10:44:05Z</time>
      </trkpt>
      <trkpt lat="43.63164" lon="7.03273">
        <ele>207.3013916</ele>
        <time>2010-04-15T10:44:13Z</time>
      </trkpt>
      <trkpt lat="43.63172" lon="7.03314">
        <ele>209.2241211</ele>
        <time>2010-04-15T10:44:23Z</time>
      </trkpt>
      <trkpt lat="43.63183" lon="7.0335">
        <ele>209.704834</ele>
        <time>2010-04-15T10:44:32Z</time>
      </trkpt>
      <trkpt lat="43.63196" lon="7.03324">
        <ele>212.588623</ele>
        <time>2010-04-15T10:44:43Z</time>
      </trkpt>
      <trkpt lat="43.63197" lon="7.03284">
        <ele>215.9532471</ele>
        <time>2010-04-15T10:44:52Z</time>
      </trkpt>
      <trkpt lat="43.63213" lon="7.03279">
        <ele>218.8372803</ele>
        <time>2010-04-15T10:45:01Z</time>
      </trkpt>
      <trkpt lat="43.63228" lon="7.03309">
        <ele>221.7211914</ele>
        <time>2010-04-15T10:45:11Z</time>
      </trkpt>
      <trkpt lat="43.63254" lon="7.033">
        <ele>224.1245117</ele>
        <time>2010-04-15T10:45:22Z</time>
      </trkpt>
      <trkpt lat="43.6328" lon="7.03276">
        <ele>227.0085449</ele>
        <time>2010-04-15T10:45:33Z</time>
      </trkpt>
      <trkpt lat="43.63303" lon="7.03253">
        <ele>228.9311523</ele>
        <time>2010-04-15T10:45:44Z</time>
      </trkpt>
      <trkpt lat="43.63337" lon="7.03227">
        <ele>230.8537598</ele>
        <time>2010-04-15T10:45:57Z</time>
      </trkpt>
      <trkpt lat="43.63365" lon="7.03202">
        <ele>231.3343506</ele>
        <time>2010-04-15T10:46:07Z</time>
      </trkpt>
      <trkpt lat="43.63392" lon="7.0317">
        <ele>230.8537598</ele>
        <time>2010-04-15T10:46:17Z</time>
      </trkpt>
      <trkpt lat="43.63408" lon="7.03133">
        <ele>231.8149414</ele>
        <time>2010-04-15T10:46:27Z</time>
      </trkpt>
      <trkpt lat="43.63419" lon="7.03092">
        <ele>233.2570801</ele>
        <time>2010-04-15T10:46:37Z</time>
      </trkpt>
      <trkpt lat="43.63427" lon="7.03056">
        <ele>234.2183838</ele>
        <time>2010-04-15T10:46:53Z</time>
      </trkpt>
      <trkpt lat="43.63404" lon="7.03069">
        <ele>238.0635986</ele>
        <time>2010-04-15T10:47:10Z</time>
      </trkpt>
      <trkpt lat="43.63374" lon="7.03068">
        <ele>242.3896484</ele>
        <time>2010-04-15T10:47:27Z</time>
      </trkpt>
      <trkpt lat="43.63344" lon="7.03051">
        <ele>245.2734375</ele>
        <time>2010-04-15T10:47:42Z</time>
      </trkpt>
      <trkpt lat="43.63326" lon="7.03032">
        <ele>247.1960449</ele>
        <time>2010-04-15T10:48:17Z</time>
      </trkpt>
      <trkpt lat="43.63322" lon="7.02992">
        <ele>249.5994873</ele>
        <time>2010-04-15T10:48:31Z</time>
      </trkpt>
      <trkpt lat="43.63326" lon="7.02948">
        <ele>250.560791</ele>
        <time>2010-04-15T10:48:44Z</time>
      </trkpt>
      <trkpt lat="43.63331" lon="7.02907">
        <ele>251.5220947</ele>
        <time>2010-04-15T10:48:56Z</time>
      </trkpt>
      <trkpt lat="43.6334" lon="7.02865">
        <ele>248.6381836</ele>
        <time>2010-04-15T10:49:08Z</time>
      </trkpt>
      <trkpt lat="43.63352" lon="7.02825">
        <ele>244.3122559</ele>
        <time>2010-04-15T10:49:18Z</time>
      </trkpt>
      <trkpt lat="43.63375" lon="7.02789">
        <ele>236.1409912</ele>
        <time>2010-04-15T10:49:25Z</time>
      </trkpt>
      <trkpt lat="43.63383" lon="7.02769">
        <ele>229.892334</ele>
        <time>2010-04-15T10:50:10Z</time>
      </trkpt>
      <trkpt lat="43.63391" lon="7.02807">
        <ele>233.2570801</ele>
        <time>2010-04-15T10:50:22Z</time>
      </trkpt>
      <trkpt lat="43.63403" lon="7.02845">
        <ele>235.1796875</ele>
        <time>2010-04-15T10:50:33Z</time>
      </trkpt>
      <trkpt lat="43.63412" lon="7.02885">
        <ele>236.1409912</ele>
        <time>2010-04-15T10:50:43Z</time>
      </trkpt>
      <trkpt lat="43.6342" lon="7.02927">
        <ele>236.6217041</ele>
        <time>2010-04-15T10:50:52Z</time>
      </trkpt>
      <trkpt lat="43.63424" lon="7.02965">
        <ele>236.6217041</ele>
        <time>2010-04-15T10:51:01Z</time>
      </trkpt>
      <trkpt lat="43.63445" lon="7.02942">
        <ele>230.8537598</ele>
        <time>2010-04-15T10:53:13Z</time>
      </trkpt>
      <trkpt lat="43.63463" lon="7.02911">
        <ele>227.4891357</ele>
        <time>2010-04-15T10:53:19Z</time>
      </trkpt>
      <trkpt lat="43.63461" lon="7.02867">
        <ele>222.2017822</ele>
        <time>2010-04-15T10:53:27Z</time>
      </trkpt>
      <trkpt lat="43.6345" lon="7.02829">
        <ele>221.7211914</ele>
        <time>2010-04-15T10:53:36Z</time>
      </trkpt>
      <trkpt lat="43.6345" lon="7.02781">
        <ele>216.9146729</ele>
        <time>2010-04-15T10:53:46Z</time>
      </trkpt>
      <trkpt lat="43.63498" lon="7.02773">
        <ele>209.704834</ele>
        <time>2010-04-15T10:54:03Z</time>
      </trkpt>
      <trkpt lat="43.63524" lon="7.02762">
        <ele>208.7434082</ele>
        <time>2010-04-15T10:54:08Z</time>
      </trkpt>
      <trkpt lat="43.63544" lon="7.02737">
        <ele>208.7434082</ele>
        <time>2010-04-15T10:54:14Z</time>
      </trkpt>
      <trkpt lat="43.63574" lon="7.02703">
        <ele>205.8594971</ele>
        <time>2010-04-15T10:54:20Z</time>
      </trkpt>
      <trkpt lat="43.63598" lon="7.02659">
        <ele>201.5335693</ele>
        <time>2010-04-15T10:54:27Z</time>
      </trkpt>
      <trkpt lat="43.63624" lon="7.02624">
        <ele>200.5722656</ele>
        <time>2010-04-15T10:54:33Z</time>
      </trkpt>
      <trkpt lat="43.63636" lon="7.02643">
        <ele>199.6108398</ele>
        <time>2010-04-15T10:55:19Z</time>
      </trkpt>
      <trkpt lat="43.63652" lon="7.02678">
        <ele>199.130127</ele>
        <time>2010-04-15T10:55:25Z</time>
      </trkpt>
      <trkpt lat="43.63684" lon="7.02665">
        <ele>198.1689453</ele>
        <time>2010-04-15T10:55:32Z</time>
      </trkpt>
      <trkpt lat="43.63709" lon="7.02653">
        <ele>196.7269287</ele>
        <time>2010-04-15T10:55:37Z</time>
      </trkpt>
      <trkpt lat="43.63744" lon="7.02643">
        <ele>191.9202881</ele>
        <time>2010-04-15T10:55:43Z</time>
      </trkpt>
      <trkpt lat="43.63781" lon="7.02633">
        <ele>189.5169678</ele>
        <time>2010-04-15T10:55:48Z</time>
      </trkpt>
      <trkpt lat="43.63823" lon="7.02618">
        <ele>182.3071289</ele>
        <time>2010-04-15T10:55:57Z</time>
      </trkpt>
      <trkpt lat="43.63838" lon="7.02652">
        <ele>177.9812012</ele>
        <time>2010-04-15T10:56:17Z</time>
      </trkpt>
      <trkpt lat="43.63827" lon="7.0269">
        <ele>175.5778809</ele>
        <time>2010-04-15T10:56:24Z</time>
      </trkpt>
      <trkpt lat="43.63842" lon="7.02704">
        <ele>167.8873291</ele>
        <time>2010-04-15T10:56:32Z</time>
      </trkpt>
      <trkpt lat="43.63858" lon="7.02669">
        <ele>165.9647217</ele>
        <time>2010-04-15T10:56:37Z</time>
      </trkpt>
      <trkpt lat="43.63886" lon="7.02679">
        <ele>165.003418</ele>
        <time>2010-04-15T10:56:42Z</time>
      </trkpt>
      <trkpt lat="43.63872" lon="7.02704">
        <ele>163.0808105</ele>
        <time>2010-04-15T10:56:55Z</time>
      </trkpt>
      <trkpt lat="43.63864" lon="7.02741">
        <ele>161.638916</ele>
        <time>2010-04-15T10:57:02Z</time>
      </trkpt>
      <trkpt lat="43.63853" lon="7.0278">
        <ele>161.638916</ele>
        <time>2010-04-15T10:57:10Z</time>
      </trkpt>
      <trkpt lat="43.63835" lon="7.02817">
        <ele>161.638916</ele>
        <time>2010-04-15T10:57:18Z</time>
      </trkpt>
      <trkpt lat="43.63808" lon="7.02848">
        <ele>161.1582031</ele>
        <time>2010-04-15T10:57:26Z</time>
      </trkpt>
      <trkpt lat="43.6378" lon="7.02867">
        <ele>160.6774902</ele>
        <time>2010-04-15T10:57:33Z</time>
      </trkpt>
      <trkpt lat="43.63748" lon="7.02878">
        <ele>160.6774902</ele>
        <time>2010-04-15T10:57:42Z</time>
      </trkpt>
      <trkpt lat="43.63712" lon="7.02907">
        <ele>159.2354736</ele>
        <time>2010-04-15T10:57:50Z</time>
      </trkpt>
      <trkpt lat="43.6369" lon="7.02942">
        <ele>159.2354736</ele>
        <time>2010-04-15T10:57:57Z</time>
      </trkpt>
      <trkpt lat="43.63673" lon="7.02974">
        <ele>157.3128662</ele>
        <time>2010-04-15T10:58:06Z</time>
      </trkpt>
      <trkpt lat="43.63668" lon="7.03024">
        <ele>154.9095459</ele>
        <time>2010-04-15T10:58:22Z</time>
      </trkpt>
      <trkpt lat="43.63673" lon="7.03068">
        <ele>156.3515625</ele>
        <time>2010-04-15T10:58:45Z</time>
      </trkpt>
      <trkpt lat="43.63679" lon="7.03118">
        <ele>154.9095459</ele>
        <time>2010-04-15T10:58:56Z</time>
      </trkpt>
      <trkpt lat="43.63671" lon="7.03165">
        <ele>156.8321533</ele>
        <time>2010-04-15T10:59:06Z</time>
      </trkpt>
      <trkpt lat="43.63662" lon="7.03221">
        <ele>156.3515625</ele>
        <time>2010-04-15T10:59:16Z</time>
      </trkpt>
      <trkpt lat="43.63656" lon="7.03269">
        <ele>156.8321533</ele>
        <time>2010-04-15T10:59:23Z</time>
      </trkpt>
      <trkpt lat="43.63645" lon="7.03326">
        <ele>155.3902588</ele>
        <time>2010-04-15T10:59:33Z</time>
      </trkpt>
      <trkpt lat="43.63634" lon="7.03371">
        <ele>155.8709717</ele>
        <time>2010-04-15T10:59:42Z</time>
      </trkpt>
      <trkpt lat="43.63628" lon="7.03425">
        <ele>155.8709717</ele>
        <time>2010-04-15T10:59:53Z</time>
      </trkpt>
      <trkpt lat="43.63642" lon="7.03486">
        <ele>153.4676514</ele>
        <time>2010-04-15T11:00:03Z</time>
      </trkpt>
      <trkpt lat="43.63648" lon="7.0353">
        <ele>150.5836182</ele>
        <time>2010-04-15T11:00:12Z</time>
      </trkpt>
      <trkpt lat="43.63622" lon="7.03597">
        <ele>152.0257568</ele>
        <time>2010-04-15T11:00:23Z</time>
      </trkpt>
      <trkpt lat="43.63604" lon="7.03611">
        <ele>152.5063477</ele>
        <time>2010-04-15T11:00:41Z</time>
      </trkpt>
      <trkpt lat="43.63592" lon="7.03597">
        <ele>153.4676514</ele>
        <time>2010-04-15T11:01:05Z</time>
      </trkpt>
      <trkpt lat="43.636" lon="7.03564">
        <ele>155.3902588</ele>
        <time>2010-04-15T11:01:20Z</time>
      </trkpt>
      <trkpt lat="43.63601" lon="7.03524">
        <ele>158.2741699</ele>
        <time>2010-04-15T11:01:32Z</time>
      </trkpt>
      <trkpt lat="43.63597" lon="7.03482">
        <ele>161.638916</ele>
        <time>2010-04-15T11:01:45Z</time>
      </trkpt>
      <trkpt lat="43.63595" lon="7.03496">
        <ele>164.5227051</ele>
        <time>2010-04-15T11:01:58Z</time>
      </trkpt>
      <trkpt lat="43.63587" lon="7.0353">
        <ele>166.9260254</ele>
        <time>2010-04-15T11:02:12Z</time>
      </trkpt>
      <trkpt lat="43.63561" lon="7.03553">
        <ele>169.8100586</ele>
        <time>2010-04-15T11:02:25Z</time>
      </trkpt>
      <trkpt lat="43.63531" lon="7.03576">
        <ele>172.2132568</ele>
        <time>2010-04-15T11:02:38Z</time>
      </trkpt>
      <trkpt lat="43.63507" lon="7.03605">
        <ele>175.5778809</ele>
        <time>2010-04-15T11:02:49Z</time>
      </trkpt>
      <trkpt lat="43.63484" lon="7.03628">
        <ele>177.5006104</ele>
        <time>2010-04-15T11:02:59Z</time>
      </trkpt>
      <trkpt lat="43.63453" lon="7.03643">
        <ele>179.9038086</ele>
        <time>2010-04-15T11:03:10Z</time>
      </trkpt>
      <trkpt lat="43.63421" lon="7.03649">
        <ele>182.7878418</ele>
        <time>2010-04-15T11:03:21Z</time>
      </trkpt>
      <trkpt lat="43.6339" lon="7.03638">
        <ele>186.1524658</ele>
        <time>2010-04-15T11:03:32Z</time>
      </trkpt>
      <trkpt lat="43.63361" lon="7.03621">
        <ele>188.5557861</ele>
        <time>2010-04-15T11:03:43Z</time>
      </trkpt>
      <trkpt lat="43.63331" lon="7.03605">
        <ele>191.4395752</ele>
        <time>2010-04-15T11:03:54Z</time>
      </trkpt>
      <trkpt lat="43.63305" lon="7.03579">
        <ele>193.3623047</ele>
        <time>2010-04-15T11:04:04Z</time>
      </trkpt>
      <trkpt lat="43.6329" lon="7.03548">
        <ele>195.765625</ele>
        <time>2010-04-15T11:04:14Z</time>
      </trkpt>
      <trkpt lat="43.63282" lon="7.0351">
        <ele>199.130127</ele>
        <time>2010-04-15T11:04:24Z</time>
      </trkpt>
      <trkpt lat="43.63281" lon="7.03472">
        <ele>202.494873</ele>
        <time>2010-04-15T11:04:35Z</time>
      </trkpt>
      <trkpt lat="43.63262" lon="7.03449">
        <ele>204.4174805</ele>
        <time>2010-04-15T11:04:46Z</time>
      </trkpt>
      <trkpt lat="43.63236" lon="7.03438">
        <ele>206.8206787</ele>
        <time>2010-04-15T11:04:57Z</time>
      </trkpt>
      <trkpt lat="43.63214" lon="7.03407">
        <ele>209.2241211</ele>
        <time>2010-04-15T11:05:08Z</time>
      </trkpt>
      <trkpt lat="43.63197" lon="7.03378">
        <ele>211.6274414</ele>
        <time>2010-04-15T11:05:22Z</time>
      </trkpt>
      <trkpt lat="43.63184" lon="7.03338">
        <ele>211.6274414</ele>
        <time>2010-04-15T11:08:50Z</time>
      </trkpt>
      <trkpt lat="43.63173" lon="7.03297">
        <ele>210.1854248</ele>
        <time>2010-04-15T11:08:57Z</time>
      </trkpt>
      <trkpt lat="43.63165" lon="7.03262">
        <ele>208.2628174</ele>
        <time>2010-04-15T11:09:02Z</time>
      </trkpt>
      <trkpt lat="43.63144" lon="7.0323">
        <ele>201.5335693</ele>
        <time>2010-04-15T11:09:12Z</time>
      </trkpt>
      <trkpt lat="43.63125" lon="7.03198">
        <ele>198.1689453</ele>
        <time>2010-04-15T11:09:19Z</time>
      </trkpt>
      <trkpt lat="43.631" lon="7.03154">
        <ele>196.7269287</ele>
        <time>2010-04-15T11:09:26Z</time>
      </trkpt>
      <trkpt lat="43.63087" lon="7.03115">
        <ele>194.3237305</ele>
        <time>2010-04-15T11:09:31Z</time>
      </trkpt>
      <trkpt lat="43.63074" lon="7.03085">
        <ele>193.8430176</ele>
        <time>2010-04-15T11:09:36Z</time>
      </trkpt>
      <trkpt lat="43.63049" lon="7.03039">
        <ele>189.9976807</ele>
        <time>2010-04-15T11:09:41Z</time>
      </trkpt>
      <trkpt lat="43.63045" lon="7.02998">
        <ele>187.1137695</ele>
        <time>2010-04-15T11:09:45Z</time>
      </trkpt>
      <trkpt lat="43.63049" lon="7.02956">
        <ele>187.1137695</ele>
        <time>2010-04-15T11:09:51Z</time>
      </trkpt>
      <trkpt lat="43.63051" lon="7.02916">
        <ele>190.4783936</ele>
        <time>2010-04-15T11:10:00Z</time>
      </trkpt>
      <trkpt lat="43.6305" lon="7.02876">
        <ele>192.401123</ele>
        <time>2010-04-15T11:10:10Z</time>
      </trkpt>
      <trkpt lat="43.63058" lon="7.0283">
        <ele>192.401123</ele>
        <time>2010-04-15T11:10:25Z</time>
      </trkpt>
      <trkpt lat="43.63071" lon="7.02789">
        <ele>190.9589844</ele>
        <time>2010-04-15T11:10:32Z</time>
      </trkpt>
      <trkpt lat="43.6308" lon="7.02749">
        <ele>188.5557861</ele>
        <time>2010-04-15T11:10:37Z</time>
      </trkpt>
      <trkpt lat="43.63103" lon="7.02703">
        <ele>184.7105713</ele>
        <time>2010-04-15T11:10:45Z</time>
      </trkpt>
      <trkpt lat="43.63096" lon="7.02725">
        <ele>176.0585938</ele>
        <time>2010-04-15T11:11:27Z</time>
      </trkpt>
      <trkpt lat="43.63069" lon="7.02735">
        <ele>176.5393066</ele>
        <time>2010-04-15T11:11:38Z</time>
      </trkpt>
      <trkpt lat="43.63041" lon="7.0274">
        <ele>178.4619141</ele>
        <time>2010-04-15T11:11:48Z</time>
      </trkpt>
      <trkpt lat="43.6301" lon="7.02745">
        <ele>178.942627</ele>
        <time>2010-04-15T11:11:58Z</time>
      </trkpt>
      <trkpt lat="43.62987" lon="7.02773">
        <ele>177.0200195</ele>
        <time>2010-04-15T11:12:04Z</time>
      </trkpt>
      <trkpt lat="43.62953" lon="7.02789">
        <ele>173.6552734</ele>
        <time>2010-04-15T11:12:09Z</time>
      </trkpt>
      <trkpt lat="43.62926" lon="7.02797">
        <ele>169.8100586</ele>
        <time>2010-04-15T11:12:16Z</time>
      </trkpt>
      <trkpt lat="43.62923" lon="7.02839">
        <ele>172.6939697</ele>
        <time>2010-04-15T11:12:34Z</time>
      </trkpt>
      <trkpt lat="43.62927" lon="7.02876">
        <ele>176.0585938</ele>
        <time>2010-04-15T11:12:46Z</time>
      </trkpt>
      <trkpt lat="43.62929" lon="7.02915">
        <ele>179.4232178</ele>
        <time>2010-04-15T11:12:57Z</time>
      </trkpt>
      <trkpt lat="43.62925" lon="7.02956">
        <ele>182.7878418</ele>
        <time>2010-04-15T11:13:07Z</time>
      </trkpt>
      <trkpt lat="43.6292" lon="7.02995">
        <ele>185.1911621</ele>
        <time>2010-04-15T11:13:15Z</time>
      </trkpt>
      <trkpt lat="43.62911" lon="7.0303">
        <ele>187.1137695</ele>
        <time>2010-04-15T11:13:23Z</time>
      </trkpt>
      <trkpt lat="43.62909" lon="7.03066">
        <ele>189.036377</ele>
        <time>2010-04-15T11:13:31Z</time>
      </trkpt>
      <trkpt lat="43.62915" lon="7.03107">
        <ele>191.4395752</ele>
        <time>2010-04-15T11:13:40Z</time>
      </trkpt>
      <trkpt lat="43.62914" lon="7.03146">
        <ele>192.8817139</ele>
        <time>2010-04-15T11:13:48Z</time>
      </trkpt>
      <trkpt lat="43.62903" lon="7.03182">
        <ele>193.8430176</ele>
        <time>2010-04-15T11:13:56Z</time>
      </trkpt>
      <trkpt lat="43.62891" lon="7.03219">
        <ele>196.7269287</ele>
        <time>2010-04-15T11:14:05Z</time>
      </trkpt>
      <trkpt lat="43.62898" lon="7.03255">
        <ele>199.130127</ele>
        <time>2010-04-15T11:14:14Z</time>
      </trkpt>
      <trkpt lat="43.62915" lon="7.03287">
        <ele>201.0528564</ele>
        <time>2010-04-15T11:14:23Z</time>
      </trkpt>
      <trkpt lat="43.62928" lon="7.03319">
        <ele>202.494873</ele>
        <time>2010-04-15T11:14:31Z</time>
      </trkpt>
      <trkpt lat="43.62929" lon="7.03361">
        <ele>205.3787842</ele>
        <time>2010-04-15T11:14:40Z</time>
      </trkpt>
      <trkpt lat="43.62925" lon="7.03401">
        <ele>207.7821045</ele>
        <time>2010-04-15T11:14:49Z</time>
      </trkpt>
      <trkpt lat="43.62913" lon="7.03438">
        <ele>210.6660156</ele>
        <time>2010-04-15T11:14:58Z</time>
      </trkpt>
      <trkpt lat="43.62897" lon="7.03467">
        <ele>211.6274414</ele>
        <time>2010-04-15T11:15:07Z</time>
      </trkpt>
      <trkpt lat="43.62877" lon="7.03504">
        <ele>212.1080322</ele>
        <time>2010-04-15T11:15:17Z</time>
      </trkpt>
      <trkpt lat="43.62859" lon="7.03536">
        <ele>212.588623</ele>
        <time>2010-04-15T11:15:27Z</time>
      </trkpt>
      <trkpt lat="43.62844" lon="7.03565">
        <ele>214.0306396</ele>
        <time>2010-04-15T11:15:39Z</time>
      </trkpt>
      <trkpt lat="43.62831" lon="7.03595">
        <ele>213.0693359</ele>
        <time>2010-04-15T11:15:54Z</time>
      </trkpt>
      <trkpt lat="43.62818" lon="7.03634">
        <ele>213.5500488</ele>
        <time>2010-04-15T11:16:03Z</time>
      </trkpt>
      <trkpt lat="43.62786" lon="7.03659">
        <ele>211.6274414</ele>
        <time>2010-04-15T11:16:11Z</time>
      </trkpt>
      <trkpt lat="43.62762" lon="7.03682">
        <ele>210.6660156</ele>
        <time>2010-04-15T11:16:22Z</time>
      </trkpt>
      <trkpt lat="43.62736" lon="7.03702">
        <ele>209.2241211</ele>
        <time>2010-04-15T11:16:31Z</time>
      </trkpt>
      <trkpt lat="43.62707" lon="7.03721">
        <ele>208.2628174</ele>
        <time>2010-04-15T11:16:37Z</time>
      </trkpt>
      <trkpt lat="43.62684" lon="7.0374">
        <ele>206.3400879</ele>
        <time>2010-04-15T11:16:41Z</time>
      </trkpt>
      <trkpt lat="43.6265" lon="7.03758">
        <ele>204.8980713</ele>
        <time>2010-04-15T11:16:46Z</time>
      </trkpt>
      <trkpt lat="43.62621" lon="7.03755">
        <ele>202.9754639</ele>
        <time>2010-04-15T11:16:50Z</time>
      </trkpt>
      <trkpt lat="43.626" lon="7.03736">
        <ele>200.0916748</ele>
        <time>2010-04-15T11:16:54Z</time>
      </trkpt>
      <trkpt lat="43.62567" lon="7.03734">
        <ele>198.6495361</ele>
        <time>2010-04-15T11:16:58Z</time>
      </trkpt>
      <trkpt lat="43.62529" lon="7.03735">
        <ele>196.2463379</ele>
        <time>2010-04-15T11:17:03Z</time>
      </trkpt>
      <trkpt lat="43.62495" lon="7.0373">
        <ele>195.2849121</ele>
        <time>2010-04-15T11:17:08Z</time>
      </trkpt>
      <trkpt lat="43.62488" lon="7.03763">
        <ele>194.3237305</ele>
        <time>2010-04-15T11:17:14Z</time>
      </trkpt>
      <trkpt lat="43.62507" lon="7.03793">
        <ele>192.8817139</ele>
        <time>2010-04-15T11:17:19Z</time>
      </trkpt>
      <trkpt lat="43.62528" lon="7.03819">
        <ele>190.9589844</ele>
        <time>2010-04-15T11:17:24Z</time>
      </trkpt>
      <trkpt lat="43.62555" lon="7.03849">
        <ele>189.036377</ele>
        <time>2010-04-15T11:17:29Z</time>
      </trkpt>
      <trkpt lat="43.62579" lon="7.03869">
        <ele>187.1137695</ele>
        <time>2010-04-15T11:17:33Z</time>
      </trkpt>
      <trkpt lat="43.62607" lon="7.0389">
        <ele>185.1911621</ele>
        <time>2010-04-15T11:17:38Z</time>
      </trkpt>
      <trkpt lat="43.62637" lon="7.03917">
        <ele>183.2684326</ele>
        <time>2010-04-15T11:17:43Z</time>
      </trkpt>
      <trkpt lat="43.62666" lon="7.03948">
        <ele>180.8652344</ele>
        <time>2010-04-15T11:17:47Z</time>
      </trkpt>
      <trkpt lat="43.62679" lon="7.03978">
        <ele>179.9038086</ele>
        <time>2010-04-15T11:17:51Z</time>
      </trkpt>
      <trkpt lat="43.62676" lon="7.04022">
        <ele>176.0585938</ele>
        <time>2010-04-15T11:17:56Z</time>
      </trkpt>
    </trkseg>
  </trk>
</gpx>